Time;durP1;ratioP1;P1;durP2;ratioP2;P2;SDS_P1;SDS_P2;PMS_P1;PMS_P2;Temp;Humidity;BMP_temperature;BMP_pressure;BME280_temperature;BME280_humidity;BME280_pressure;Samples;Min_cycle;Max_cycle;Signal;HPM_P1;HPM_P2
2021/07/06 00:00:19;;;;;;;2.63;2.30;;;15.30;99.90;;;;;;5090298;28;20461;-64
2021/07/06 00:02:49;;;;;;;2.87;2.67;;;15.30;99.90;;;;;;5090369;28;21030;-63
2021/07/06 00:05:16;;;;;;;5.10;2.63;;;15.30;99.90;;;;;;5090100;28;20852;-64
2021/07/06 00:07:46;;;;;;;2.70;2.20;;;15.30;99.90;;;;;;5090182;28;20468;-64
2021/07/06 00:10:14;;;;;;;2.50;2.30;;;15.30;99.90;;;;;;5089715;28;20514;-64
2021/07/06 00:12:41;;;;;;;4.97;2.40;;;15.30;99.90;;;;;;5090495;28;20465;-64
2021/07/06 00:15:09;;;;;;;2.67;2.47;;;15.20;99.90;;;;;;5090172;28;20986;-64
2021/07/06 00:17:36;;;;;;;2.13;1.93;;;15.30;99.90;;;;;;5090062;28;20472;-64
2021/07/06 00:20:04;;;;;;;3.30;2.17;;;15.20;99.90;;;;;;5090048;28;20812;-64
2021/07/06 00:22:31;;;;;;;2.73;2.53;;;15.20;99.90;;;;;;5090025;28;20472;-64
2021/07/06 00:24:59;;;;;;;3.90;2.50;;;15.20;99.90;;;;;;5089776;28;20886;-64
2021/07/06 00:27:26;;;;;;;2.93;2.30;;;15.10;99.90;;;;;;5090331;28;20477;-64
2021/07/06 00:29:53;;;;;;;2.83;2.30;;;15.10;99.90;;;;;;5090855;28;20457;-64
2021/07/06 00:32:19;;;;;;;3.03;2.40;;;15.10;99.90;;;;;;5091869;28;20462;-64
2021/07/06 00:34:46;;;;;;;2.50;2.10;;;15.10;99.90;;;;;;5091376;28;20477;-64
2021/07/06 00:37:13;;;;;;;2.97;2.67;;;15.10;99.90;;;;;;5091905;28;20468;-64
2021/07/06 00:39:39;;;;;;;2.53;2.33;;;15.10;99.90;;;;;;5091235;28;20464;-64
2021/07/06 00:42:09;;;;;;;3.83;2.30;;;15.00;99.90;;;;;;5091626;28;20474;-64
2021/07/06 00:44:36;;;;;;;4.60;2.40;;;15.00;99.90;;;;;;5091436;28;20908;-65
2021/07/06 00:47:04;;;;;;;2.67;2.40;;;15.00;99.90;;;;;;5091063;28;20469;-64
2021/07/06 00:49:31;;;;;;;2.10;1.90;;;14.90;99.90;;;;;;5090934;28;21418;-64
2021/07/06 00:51:57;;;;;;;3.57;2.13;;;15.00;99.90;;;;;;5090521;28;20925;-64
2021/07/06 00:54:24;;;;;;;2.50;2.07;;;14.90;99.90;;;;;;5090994;28;20851;-64
2021/07/06 00:56:51;;;;;;;2.47;2.27;;;14.90;99.90;;;;;;5090954;28;20550;-64
2021/07/06 00:59:20;;;;;;;2.43;2.20;;;14.90;99.90;;;;;;5090474;28;20484;-64
2021/07/06 01:01:48;;;;;;;3.50;2.43;;;14.80;99.90;;;;;;5090957;28;20457;-64
2021/07/06 01:04:14;;;;;;;2.73;2.53;;;14.80;99.90;;;;;;5090546;28;20576;-65
2021/07/06 01:06:41;;;;;;;2.43;2.17;;;14.90;99.90;;;;;;5090670;28;20467;-63
2021/07/06 01:09:08;;;;;;;2.23;2.03;;;14.80;99.90;;;;;;5090290;28;20830;-64
2021/07/06 01:11:35;;;;;;;2.67;2.47;;;14.90;99.90;;;;;;5090885;28;20481;-64
2021/07/06 01:14:02;;;;;;;3.63;2.30;;;14.90;99.90;;;;;;5079894;28;20502;-64
2021/07/06 01:16:30;;;;;;;2.50;2.30;;;14.80;99.90;;;;;;5049765;28;20955;-64
2021/07/06 01:18:58;;;;;;;2.67;2.27;;;14.80;99.90;;;;;;5050319;28;20467;-64
2021/07/06 01:21:24;;;;;;;2.47;2.27;;;14.80;99.90;;;;;;5049785;28;20459;-64
2021/07/06 01:23:53;;;;;;;2.77;2.37;;;14.80;99.90;;;;;;5078053;28;20482;-64
2021/07/06 01:26:19;;;;;;;2.70;2.50;;;14.80;99.90;;;;;;5079878;28;20498;-64
2021/07/06 01:28:46;;;;;;;4.30;2.63;;;14.80;99.90;;;;;;5080480;28;20461;-63
2021/07/06 01:31:13;;;;;;;2.57;2.37;;;14.80;99.90;;;;;;5078828;28;20454;-64
2021/07/06 01:33:40;;;;;;;2.40;2.20;;;14.80;99.90;;;;;;5079434;28;20474;-64
2021/07/06 01:36:08;;;;;;;3.10;2.40;;;14.80;99.90;;;;;;5078047;28;20463;-64
2021/07/06 01:38:36;;;;;;;2.33;2.13;;;14.80;99.90;;;;;;5080157;28;20466;-64
2021/07/06 01:41:05;;;;;;;2.83;2.50;;;14.80;99.90;;;;;;5088207;28;20454;-64
2021/07/06 01:43:33;;;;;;;7.57;2.77;;;14.80;99.90;;;;;;5090004;28;20558;-63
2021/07/06 01:46:02;;;;;;;4.57;2.50;;;14.80;99.90;;;;;;5089935;28;20461;-64
2021/07/06 01:48:29;;;;;;;2.57;2.37;;;14.80;99.90;;;;;;5090264;28;21017;-63
2021/07/06 01:50:57;;;;;;;3.70;2.40;;;14.80;99.90;;;;;;5089414;28;20449;-64
2021/07/06 01:53:23;;;;;;;3.80;2.40;;;14.80;99.90;;;;;;5089926;28;20478;-64
2021/07/06 01:55:52;;;;;;;3.00;2.20;;;14.70;99.90;;;;;;5089697;28;20457;-64
2021/07/06 01:58:22;;;;;;;2.40;2.20;;;14.70;99.90;;;;;;5089949;28;20461;-63
2021/07/06 02:00:51;;;;;;;2.33;2.13;;;14.70;99.90;;;;;;5089514;28;20836;-64
2021/07/06 02:03:18;;;;;;;2.50;2.20;;;14.70;99.90;;;;;;5089118;28;20846;-64
2021/07/06 02:05:46;;;;;;;5.80;2.57;;;14.70;99.90;;;;;;5089383;28;21001;-64
2021/07/06 02:08:16;;;;;;;3.37;2.20;;;14.60;99.90;;;;;;5089852;28;20779;-64
2021/07/06 02:10:45;;;;;;;2.63;2.30;;;14.60;99.90;;;;;;5089138;28;20458;-63
2021/07/06 02:13:14;;;;;;;2.53;2.33;;;14.60;99.90;;;;;;5089494;28;20470;-64
2021/07/06 02:15:43;;;;;;;3.77;2.30;;;14.60;99.90;;;;;;5089466;28;20453;-64
2021/07/06 02:18:17;;;;;;;2.37;2.17;;;14.60;99.90;;;;;;5089353;28;20461;-64
2021/07/06 02:20:44;;;;;;;2.70;2.30;;;14.60;99.90;;;;;;5088639;28;20982;-64
2021/07/06 02:23:11;;;;;;;4.00;2.10;;;14.60;99.90;;;;;;5089492;28;20846;-64
2021/07/06 02:25:38;;;;;;;2.97;2.27;;;14.50;99.90;;;;;;5089230;28;20832;-64
2021/07/06 02:28:05;;;;;;;3.60;2.50;;;14.50;99.90;;;;;;5091029;22;20674;-67
2021/07/06 02:30:32;;;;;;;3.00;2.27;;;14.50;99.90;;;;;;5047074;28;20463;-67
2021/07/06 02:33:00;;;;;;;2.20;2.00;;;14.50;99.90;;;;;;5046605;28;20463;-67
2021/07/06 02:35:27;;;;;;;3.33;3.00;;;14.50;99.90;;;;;;5047257;28;20958;-67
2021/07/06 02:37:57;;;;;;;2.40;2.20;;;14.50;99.90;;;;;;5047105;28;20468;-67
2021/07/06 02:40:24;;;;;;;2.40;2.20;;;14.50;99.90;;;;;;5046439;28;20955;-67
2021/07/06 02:42:51;;;;;;;3.03;2.17;;;14.50;99.90;;;;;;5047172;28;20452;-67
2021/07/06 02:45:18;;;;;;;2.50;2.30;;;14.50;99.90;;;;;;5047609;28;20487;-67
2021/07/06 02:47:46;;;;;;;2.67;2.47;;;14.40;99.90;;;;;;5048872;28;20538;-67
2021/07/06 02:50:16;;;;;;;5.10;2.50;;;14.40;99.90;;;;;;5048227;28;20467;-68
2021/07/06 02:52:45;;;;;;;2.67;2.47;;;14.40;99.90;;;;;;5047891;28;20459;-67
2021/07/06 02:55:13;;;;;;;3.30;2.40;;;14.40;99.90;;;;;;5047398;28;20485;-67
2021/07/06 02:57:40;;;;;;;4.97;2.70;;;14.40;99.90;;;;;;5048438;28;20931;-67
2021/07/06 03:00:14;;;;;;;2.43;2.20;;;14.40;99.90;;;;;;5048045;28;20459;-67
2021/07/06 03:02:42;;;;;;;2.67;2.47;;;14.30;99.90;;;;;;5048176;28;20464;-67
2021/07/06 03:05:11;;;;;;;2.57;2.27;;;14.30;99.90;;;;;;5048189;28;20498;-67
2021/07/06 03:07:39;;;;;;;2.53;2.33;;;14.30;99.90;;;;;;5048216;28;20467;-67
2021/07/06 03:10:08;;;;;;;3.10;2.37;;;14.30;99.90;;;;;;5048250;28;20456;-67
2021/07/06 03:12:35;;;;;;;2.53;2.33;;;14.30;99.90;;;;;;5047806;28;20459;-67
2021/07/06 03:15:02;;;;;;;5.10;2.47;;;14.30;99.90;;;;;;5049231;28;20479;-67
2021/07/06 03:17:28;;;;;;;2.70;2.50;;;14.30;99.90;;;;;;5052262;28;20463;-67
2021/07/06 03:19:55;;;;;;;2.00;1.90;;;14.30;99.90;;;;;;5052020;28;20463;-67
2021/07/06 03:22:22;;;;;;;4.20;2.20;;;14.30;99.90;;;;;;5052285;28;20948;-67
2021/07/06 03:24:50;;;;;;;2.50;2.30;;;14.30;99.90;;;;;;5052077;28;20497;-67
2021/07/06 03:27:17;;;;;;;2.63;2.43;;;14.30;99.90;;;;;;5052280;28;20467;-67
2021/07/06 03:29:44;;;;;;;3.20;2.50;;;14.30;99.90;;;;;;5051914;28;20506;-67
2021/07/06 03:32:11;;;;;;;2.43;2.23;;;14.30;99.90;;;;;;5052441;28;20470;-67
2021/07/06 03:34:38;;;;;;;3.87;2.60;;;14.30;99.90;;;;;;5053600;28;20474;-68
2021/07/06 03:37:07;;;;;;;2.50;1.93;;;14.30;99.90;;;;;;5061898;28;20455;-68
2021/07/06 03:39:34;;;;;;;4.20;2.47;;;14.30;99.90;;;;;;5059347;28;20560;-67
2021/07/06 03:42:03;;;;;;;2.57;2.30;;;14.30;99.90;;;;;;5061339;28;20463;-68
2021/07/06 03:44:30;;;;;;;2.33;2.13;;;14.30;99.90;;;;;;5061099;28;20533;-68
2021/07/06 03:46:57;;;;;;;2.40;2.20;;;14.30;99.90;;;;;;5059620;28;20466;-68
2021/07/06 03:49:23;;;;;;;1.83;1.70;;;14.30;99.90;;;;;;5060130;28;20462;-67
2021/07/06 03:51:50;;;;;;;2.90;1.90;;;14.30;99.90;;;;;;5061170;28;20804;-67
2021/07/06 03:54:17;;;;;;;2.40;2.03;;;14.40;99.90;;;;;;5058535;28;20478;-68
2021/07/06 03:56:44;;;;;;;2.47;2.27;;;14.40;99.90;;;;;;5050974;28;20467;-67
2021/07/06 03:59:12;;;;;;;3.27;2.13;;;14.40;99.90;;;;;;5050987;28;20455;-67
2021/07/06 04:01:39;;;;;;;2.40;2.20;;;14.50;99.90;;;;;;5057053;28;20459;-67
2021/07/06 04:04:06;;;;;;;2.17;1.97;;;14.50;99.90;;;;;;5060365;28;20818;-67
2021/07/06 04:06:33;;;;;;;2.27;1.80;;;14.50;99.90;;;;;;5061002;28;20490;-68
2021/07/06 04:08:59;;;;;;;2.60;2.13;;;14.60;99.90;;;;;;5056965;28;20495;-67
2021/07/06 04:11:26;;;;;;;2.67;2.17;;;14.70;99.90;;;;;;5056903;28;20595;-67
2021/07/06 04:13:53;;;;;;;2.50;2.20;;;14.70;99.90;;;;;;5061758;28;20486;-67
2021/07/06 04:16:21;;;;;;;2.70;2.50;;;14.80;99.90;;;;;;5057714;28;20525;-68
2021/07/06 04:18:47;;;;;;;3.50;2.77;;;14.80;99.90;;;;;;5061451;28;20458;-67
2021/07/06 04:21:14;;;;;;;2.73;2.53;;;14.80;99.90;;;;;;5061641;28;20488;-67
2021/07/06 04:23:41;;;;;;;2.70;1.93;;;14.80;99.90;;;;;;5059787;28;20491;-67
2021/07/06 04:26:08;;;;;;;4.37;2.40;;;14.90;99.90;;;;;;5064848;28;20541;-68
2021/07/06 04:28:36;;;;;;;2.50;2.30;;;15.00;99.90;;;;;;5069260;28;20473;-68
2021/07/06 04:31:03;;;;;;;2.50;2.30;;;15.20;99.90;;;;;;5070191;28;20458;-68
2021/07/06 04:33:31;;;;;;;2.50;2.17;;;15.30;99.90;;;;;;5068831;28;21427;-68
2021/07/06 04:35:58;;;;;;;2.10;2.00;;;15.40;99.90;;;;;;5071087;28;20477;-68
2021/07/06 04:38:25;;;;;;;5.50;2.30;;;15.50;99.90;;;;;;5071023;28;20467;-68
2021/07/06 04:40:51;;;;;;;2.30;2.10;;;15.60;99.90;;;;;;5070291;28;20466;-68
2021/07/06 04:43:18;;;;;;;2.03;1.87;;;15.60;99.90;;;;;;5070936;28;20536;-68
2021/07/06 04:45:45;;;;;;;3.70;2.40;;;15.70;99.90;;;;;;5070450;28;20997;-68
2021/07/06 04:48:11;;;;;;;2.00;1.80;;;15.70;99.90;;;;;;5071156;28;20461;-68
2021/07/06 04:50:40;;;;;;;2.87;2.07;;;15.70;99.90;;;;;;5070288;28;20470;-68
2021/07/06 04:53:07;;;;;;;2.60;2.20;;;15.70;99.90;;;;;;5070588;28;20561;-68
2021/07/06 04:55:35;;;;;;;1.90;1.80;;;15.80;99.90;;;;;;5070444;28;20450;-68
2021/07/06 04:58:02;;;;;;;2.30;2.10;;;15.90;99.90;;;;;;5070896;28;20469;-68
2021/07/06 05:00:28;;;;;;;2.77;2.20;;;16.00;99.90;;;;;;5070171;28;20466;-68
2021/07/06 05:02:55;;;;;;;2.77;1.93;;;16.10;99.90;;;;;;5070207;28;20481;-68
2021/07/06 05:05:22;;;;;;;1.90;1.70;;;16.20;99.90;;;;;;5070423;28;20502;-67
2021/07/06 05:07:50;;;;;;;2.20;2.00;;;16.40;99.90;;;;;;5070276;28;20465;-68
2021/07/06 05:10:18;;;;;;;3.73;2.40;;;16.60;99.90;;;;;;5069723;28;20549;-68
2021/07/06 05:12:45;;;;;;;3.00;1.70;;;16.70;99.90;;;;;;5070113;28;20457;-68
2021/07/06 05:15:12;;;;;;;2.27;1.90;;;16.80;99.90;;;;;;5070355;28;20461;-68
2021/07/06 05:17:38;;;;;;;2.10;1.70;;;16.90;99.90;;;;;;5070168;28;20463;-68
2021/07/06 05:20:06;;;;;;;3.13;1.83;;;16.80;99.90;;;;;;5069644;28;20473;-68
2021/07/06 05:22:33;;;;;;;2.10;1.80;;;16.80;99.90;;;;;;5070002;28;20466;-68
2021/07/06 05:25:01;;;;;;;2.17;2.07;;;16.80;99.90;;;;;;5069986;28;20489;-68
2021/07/06 05:27:28;;;;;;;2.43;2.23;;;16.80;99.90;;;;;;5065848;28;20966;-68
2021/07/06 05:29:54;;;;;;;2.20;2.00;;;16.80;99.90;;;;;;5050079;28;20460;-67
2021/07/06 05:32:22;;;;;;;3.20;2.20;;;16.90;99.90;;;;;;5050217;28;20470;-68
2021/07/06 05:34:51;;;;;;;2.00;1.80;;;16.90;99.90;;;;;;5050218;28;20511;-68
2021/07/06 05:37:17;;;;;;;2.60;1.90;;;17.00;99.90;;;;;;5049958;28;20880;-68
2021/07/06 05:39:44;;;;;;;2.57;1.70;;;17.10;99.90;;;;;;5048711;28;20462;-68
2021/07/06 05:42:12;;;;;;;2.00;1.90;;;17.20;99.90;;;;;;5049932;28;20850;-67
2021/07/06 05:44:39;;;;;;;2.47;2.27;;;17.30;99.90;;;;;;5050009;28;20483;-68
2021/07/06 05:47:07;;;;;;;2.30;2.10;;;17.30;99.90;;;;;;5050053;28;20861;-67
2021/07/06 05:49:34;;;;;;;2.30;2.10;;;17.50;99.90;;;;;;5049160;28;20452;-68
2021/07/06 05:52:01;;;;;;;2.33;2.00;;;17.60;99.90;;;;;;5050040;28;20997;-68
2021/07/06 05:54:28;;;;;;;1.70;1.60;;;17.80;99.90;;;;;;5049424;28;20862;-68
2021/07/06 05:56:54;;;;;;;3.10;1.80;;;17.90;99.90;;;;;;5049982;28;20458;-68
2021/07/06 05:59:23;;;;;;;2.10;1.83;;;18.10;99.90;;;;;;5049155;28;21291;-68
2021/07/06 06:01:50;;;;;;;2.13;1.80;;;18.30;99.90;;;;;;5049843;28;20466;-68
2021/07/06 06:04:16;;;;;;;2.30;2.10;;;18.40;99.90;;;;;;5049317;28;20506;-68
2021/07/06 06:06:43;;;;;;;1.60;1.50;;;18.50;99.90;;;;;;5056616;28;20479;-69
2021/07/06 06:09:10;;;;;;;1.93;1.77;;;18.60;99.90;;;;;;5050053;28;21064;-68
2021/07/06 06:11:37;;;;;;;1.73;1.63;;;18.60;99.90;;;;;;5061775;28;20820;-68
2021/07/06 06:14:04;;;;;;;1.60;1.50;;;18.50;99.90;;;;;;5050976;28;20476;-68
2021/07/06 06:16:32;;;;;;;2.13;1.37;;;18.50;99.90;;;;;;5048584;28;20491;-68
2021/07/06 06:18:59;;;;;;;1.97;1.70;;;18.50;99.90;;;;;;5049495;28;20538;-68
2021/07/06 06:21:27;;;;;;;2.70;1.50;;;18.50;99.90;;;;;;5048606;28;20469;-68
2021/07/06 06:23:54;;;;;;;1.67;1.57;;;18.50;99.90;;;;;;5057537;28;21191;-68
2021/07/06 06:26:21;;;;;;;4.40;1.80;;;18.60;99.90;;;;;;5068838;28;20482;-68
2021/07/06 06:28:48;;;;;;;2.23;1.90;;;18.60;99.90;;;;;;5068993;28;20962;-68
2021/07/06 06:31:16;;;;;;;1.70;1.57;;;18.70;99.90;;;;;;5068928;28;20466;-68
2021/07/06 06:33:44;;;;;;;1.73;1.57;;;18.90;99.90;;;;;;5068765;28;20513;-68
2021/07/06 06:36:11;;;;;;;2.50;1.50;;;19.00;99.90;;;;;;5069112;28;20466;-68
2021/07/06 06:38:38;;;;;;;1.70;1.60;;;19.30;99.90;;;;;;5066224;28;20824;-68
2021/07/06 06:41:04;;;;;;;2.00;1.60;;;19.40;99.90;;;;;;5065171;28;20458;-68
2021/07/06 06:43:31;;;;;;;2.10;1.90;;;19.60;99.90;;;;;;5066851;28;20482;-68
2021/07/06 06:45:58;;;;;;;2.20;1.63;;;19.70;99.90;;;;;;5069045;28;20563;-68
2021/07/06 06:48:24;;;;;;;1.60;1.50;;;19.80;99.90;;;;;;5068679;28;20462;-68
2021/07/06 06:50:52;;;;;;;1.93;1.70;;;19.90;99.90;;;;;;5068061;28;20458;-69
2021/07/06 06:53:19;;;;;;;3.23;2.20;;;19.90;99.90;;;;;;5058527;28;20474;-68
2021/07/06 06:55:46;;;;;;;1.97;1.37;;;19.90;99.90;;;;;;5048511;28;20459;-68
2021/07/06 06:58:12;;;;;;;2.53;1.93;;;19.80;99.90;;;;;;5048594;28;20468;-68
2021/07/06 07:00:40;;;;;;;3.00;1.70;;;19.80;99.90;;;;;;5053426;28;20466;-68
2021/07/06 07:03:07;;;;;;;2.00;1.80;;;19.90;99.90;;;;;;5056154;28;20482;-68
2021/07/06 07:05:34;;;;;;;2.30;1.70;;;19.90;99.90;;;;;;5047937;28;20467;-68
2021/07/06 07:08:02;;;;;;;1.80;1.60;;;20.00;99.90;;;;;;5060331;28;20455;-69
2021/07/06 07:10:29;;;;;;;2.10;1.90;;;20.10;99.90;;;;;;5056662;28;20839;-69
2021/07/06 07:12:56;;;;;;;1.70;1.60;;;20.20;99.90;;;;;;5053802;28;20466;-68
2021/07/06 07:15:23;;;;;;;1.50;1.40;;;20.40;99.90;;;;;;5066268;28;20490;-69
2021/07/06 07:17:50;;;;;;;1.93;1.50;;;20.50;99.90;;;;;;5049288;28;20482;-69
2021/07/06 07:20:17;;;;;;;1.70;1.60;;;20.60;99.90;;;;;;5061372;28;20529;-68
2021/07/06 07:22:44;;;;;;;2.33;1.60;;;20.60;99.90;;;;;;5068144;28;20953;-68
2021/07/06 07:25:13;;;;;;;1.83;1.40;;;20.70;99.90;;;;;;5062253;28;20462;-68
2021/07/06 07:27:40;;;;;;;2.10;1.90;;;20.60;99.90;;;;;;5053665;28;20481;-69
2021/07/06 07:30:08;;;;;;;3.47;1.80;;;20.60;99.90;;;;;;5048497;28;20467;-68
2021/07/06 07:32:35;;;;;;;1.67;1.57;;;20.70;99.90;;;;;;5053539;28;20458;-69
2021/07/06 07:35:01;;;;;;;2.40;1.70;;;20.80;99.90;;;;;;5066384;28;20475;-68
2021/07/06 07:37:28;;;;;;;2.33;1.50;;;20.80;99.90;;;;;;5068318;28;20459;-68
2021/07/06 07:39:55;;;;;;;2.13;1.93;;;20.90;99.90;;;;;;5067827;28;20536;-68
2021/07/06 07:42:23;;;;;;;4.87;2.20;;;20.90;99.90;;;;;;5055474;28;20458;-69
2021/07/06 07:44:50;;;;;;;1.60;1.40;;;21.00;99.90;;;;;;5066601;28;20478;-68
2021/07/06 07:47:17;;;;;;;3.03;1.80;;;21.10;99.90;;;;;;5065542;28;20531;-69
2021/07/06 07:49:44;;;;;;;2.20;1.67;;;21.20;99.90;;;;;;5059164;28;20836;-69
2021/07/06 07:52:11;;;;;;;2.83;1.73;;;21.30;99.90;;;;;;5048232;28;20471;-69
2021/07/06 07:54:38;;;;;;;2.63;1.67;;;21.40;99.90;;;;;;5047907;28;20478;-69
2021/07/06 07:57:06;;;;;;;2.90;1.73;;;21.60;99.90;;;;;;5047979;28;20521;-68
2021/07/06 07:59:34;;;;;;;2.20;1.57;;;21.70;99.90;;;;;;5047373;28;20459;-68
2021/07/06 08:02:01;;;;;;;2.13;1.93;;;21.70;99.90;;;;;;5048579;28;20513;-69
2021/07/06 08:04:28;;;;;;;3.33;1.57;;;21.80;99.90;;;;;;5058029;28;20478;-68
2021/07/06 08:06:54;;;;;;;1.90;1.50;;;21.90;99.90;;;;;;5069863;28;20489;-68
2021/07/06 08:09:21;;;;;;;2.27;1.50;;;21.90;99.90;;;;;;5069341;28;20493;-68
2021/07/06 08:11:48;;;;;;;1.53;1.30;;;22.00;99.90;;;;;;5069757;28;20463;-68
2021/07/06 08:14:15;;;;;;;1.97;1.77;;;22.00;99.90;;;;;;5069524;28;20489;-69
2021/07/06 08:16:43;;;;;;;1.90;1.67;;;22.10;99.90;;;;;;5069826;28;20894;-68
2021/07/06 08:19:09;;;;;;;1.97;1.50;;;22.10;99.90;;;;;;5068495;28;20474;-68
2021/07/06 08:21:36;;;;;;;1.77;1.47;;;22.20;99.90;;;;;;5069776;28;20488;-68
2021/07/06 08:24:03;;;;;;;2.60;1.80;;;22.30;99.90;;;;;;5069642;28;20486;-68
2021/07/06 08:26:31;;;;;;;1.57;1.47;;;22.40;99.90;;;;;;5069308;28;20641;-69
2021/07/06 08:28:58;;;;;;;2.10;1.30;;;22.40;99.90;;;;;;5069727;28;20516;-69
2021/07/06 08:31:24;;;;;;;2.10;1.90;;;22.50;99.90;;;;;;5068554;28;20458;-69
2021/07/06 08:33:53;;;;;;;2.00;1.80;;;22.60;99.90;;;;;;5069128;28;20478;-69
2021/07/06 08:36:19;;;;;;;1.63;1.53;;;22.70;99.90;;;;;;5069160;28;20980;-68
2021/07/06 08:38:46;;;;;;;1.30;1.20;;;22.80;99.90;;;;;;5069678;28;20469;-69
2021/07/06 08:41:13;;;;;;;2.00;1.50;;;22.80;99.90;;;;;;5068568;28;20459;-69
2021/07/06 08:43:40;;;;;;;2.40;1.70;;;23.00;99.90;;;;;;5069098;28;20493;-69
2021/07/06 08:46:07;;;;;;;1.70;1.60;;;23.10;99.90;;;;;;5069181;28;20949;-68
2021/07/06 08:48:36;;;;;;;3.23;1.80;;;23.20;99.90;;;;;;5068494;28;20921;-69
2021/07/06 08:51:05;;;;;;;1.50;1.40;;;23.20;99.90;;;;;;5068634;28;20462;-69
2021/07/06 08:53:32;;;;;;;1.63;1.53;;;23.20;99.90;;;;;;5068829;28;20548;-69
2021/07/06 08:55:59;;;;;;;1.47;1.37;;;23.20;99.90;;;;;;5068999;28;20458;-69
2021/07/06 08:58:26;;;;;;;2.60;1.57;;;23.30;99.90;;;;;;5069129;28;20463;-68
2021/07/06 09:00:52;;;;;;;2.03;1.67;;;23.30;99.90;;;;;;5068582;28;20547;-69
2021/07/06 09:03:19;;;;;;;2.60;1.53;;;23.40;99.90;;;;;;5068036;28;20487;-69
2021/07/06 09:05:46;;;;;;;2.50;1.50;;;23.40;99.90;;;;;;5069047;28;20462;-68
2021/07/06 09:08:18;;;;;;;2.30;1.50;;;23.30;99.90;;;;;;5068780;28;20482;-69
2021/07/06 09:10:45;;;;;;;1.83;1.57;;;23.30;99.90;;;;;;5067922;28;20953;-69
2021/07/06 09:13:27;;;;;;;2.70;1.80;;;23.30;99.90;;;;;;5067935;28;20478;-69
2021/07/06 09:15:55;;;;;;;6.03;2.10;;;23.30;99.90;;;;;;5068868;28;21233;-69
2021/07/06 09:18:23;;;;;;;5.00;2.37;;;23.30;99.90;;;;;;5067828;28;20459;-69
2021/07/06 09:21:02;;;;;;;2.43;2.23;;;23.30;99.90;;;;;;5068218;28;20464;-69
2021/07/06 09:23:34;;;;;;;4.17;2.80;;;23.30;99.90;;;;;;5068156;28;20712;-69
2021/07/06 09:26:10;;;;;;;5.30;3.30;;;23.30;99.90;;;;;;5068433;28;20465;-69
2021/07/06 09:28:38;;;;;;;3.17;2.87;;;23.30;99.90;;;;;;5126244;22;20450;-67
2021/07/06 09:31:26;;;;;;;4.63;3.13;;;23.20;99.90;;;;;;5027590;28;20460;-67
2021/07/06 09:34:00;;;;;;;4.57;3.40;;;23.10;99.90;;;;;;5027990;28;20520;-67
2021/07/06 09:36:33;;;;;;;4.20;3.17;;;23.00;99.90;;;;;;5028559;28;20462;-66
2021/07/06 09:39:08;;;;;;;5.53;2.70;;;22.60;99.90;;;;;;5028634;28;20468;-67
2021/07/06 09:41:35;;;;;;;2.30;1.67;;;22.30;99.90;;;;;;5041240;28;20455;-67
2021/07/06 09:44:20;;;;;;;3.70;1.97;;;22.00;99.90;;;;;;5048313;28;20471;-67
2021/07/06 09:46:49;;;;;;;2.17;2.00;;;21.80;99.90;;;;;;5047543;28;20489;-66
2021/07/06 09:49:18;;;;;;;1.50;1.40;;;21.60;99.90;;;;;;5046206;28;20487;-67
2021/07/06 09:51:45;;;;;;;1.90;1.70;;;21.40;99.90;;;;;;5047570;28;20986;-67
2021/07/06 09:54:25;;;;;;;1.70;1.20;;;21.30;99.90;;;;;;5046599;28;20485;-66
2021/07/06 09:56:53;;;;;;;1.50;1.40;;;21.20;99.90;;;;;;5047204;28;20531;-67
2021/07/06 09:59:22;;;;;;;2.43;1.40;;;21.20;99.90;;;;;;5046096;28;20979;-67
2021/07/06 10:01:59;;;;;;;1.60;1.33;;;21.20;99.90;;;;;;5047067;28;20462;-67
2021/07/06 10:04:27;;;;;;;1.40;1.30;;;21.30;99.90;;;;;;5047041;28;20486;-67
2021/07/06 10:06:55;;;;;;;2.17;1.50;;;21.30;99.90;;;;;;5047297;28;20743;-67
2021/07/06 10:09:25;;;;;;;1.33;1.10;;;21.40;99.90;;;;;;5046457;28;20455;-67
2021/07/06 10:11:53;;;;;;;1.73;1.27;;;21.50;99.90;;;;;;5046743;28;20463;-67
2021/07/06 10:14:20;;;;;;;4.13;1.67;;;21.50;99.90;;;;;;5047069;28;20475;-67
2021/07/06 10:16:47;;;;;;;1.20;1.00;;;21.50;99.90;;;;;;5046247;28;20752;-67
2021/07/06 10:19:14;;;;;;;2.07;1.20;;;21.40;99.90;;;;;;5046615;28;20466;-67
2021/07/06 10:21:41;;;;;;;1.47;1.20;;;21.40;99.90;;;;;;5046366;28;20462;-66
2021/07/06 10:24:08;;;;;;;1.20;1.10;;;21.40;99.90;;;;;;5046364;28;20475;-67
2021/07/06 10:26:40;;;;;;;1.37;1.17;;;21.40;99.90;;;;;;5046996;28;20481;-67
2021/07/06 10:29:07;;;;;;;1.70;1.50;;;21.30;99.90;;;;;;5047117;28;20845;-66
2021/07/06 10:31:42;;;;;;;1.70;1.30;;;21.20;99.90;;;;;;5046660;28;21115;-67
2021/07/06 10:34:21;;;;;;;1.20;0.87;;;21.20;99.90;;;;;;5045829;28;20536;-66
2021/07/06 10:36:48;;;;;;;1.07;0.97;;;21.10;99.90;;;;;;5046520;28;20943;-67
2021/07/06 10:39:18;;;;;;;1.40;0.83;;;21.10;99.90;;;;;;5045405;28;20836;-67
2021/07/06 10:42:09;;;;;;;0.80;0.80;;;21.10;99.90;;;;;;5043368;28;21014;-67
2021/07/06 10:44:38;;;;;;;1.10;0.90;;;21.10;99.90;;;;;;5041861;28;20479;-67
2021/07/06 10:47:05;;;;;;;1.10;1.00;;;21.10;99.90;;;;;;5039957;28;20476;-66
2021/07/06 10:49:34;;;;;;;1.20;1.03;;;21.10;99.90;;;;;;5030859;28;20456;-67
2021/07/06 10:52:04;;;;;;;1.10;0.90;;;20.90;99.90;;;;;;5045591;28;20943;-66
2021/07/06 10:54:33;;;;;;;1.10;0.90;;;20.90;99.90;;;;;;5045937;28;20586;-67
2021/07/06 10:57:22;;;;;;;1.07;0.97;;;20.90;99.90;;;;;;5045692;28;21009;-67
2021/07/06 10:59:56;;;;;;;1.10;0.90;;;20.90;99.90;;;;;;5045352;28;20456;-67
2021/07/06 11:02:25;;;;;;;1.00;0.90;;;21.00;99.90;;;;;;5039174;28;20459;-67
2021/07/06 11:04:55;;;;;;;1.13;0.93;;;21.00;99.90;;;;;;5036130;28;20583;-67
2021/07/06 11:07:54;;;;;;;1.73;0.90;;;21.00;99.90;;;;;;5018912;28;20472;-67
2021/07/06 11:10:32;;;;;;;1.10;1.00;;;21.00;99.90;;;;;;5015578;28;20539;-67
2021/07/06 11:13:19;;;;;;;2.10;0.80;;;21.00;99.90;;;;;;5015888;28;20552;-67
2021/07/06 11:15:46;;;;;;;1.40;0.90;;;21.00;99.90;;;;;;5016097;28;20457;-67
2021/07/06 11:18:13;;;;;;;1.20;0.93;;;21.00;99.90;;;;;;5015098;28;20464;-67
2021/07/06 11:20:42;;;;;;;2.53;1.30;;;21.10;99.90;;;;;;5014955;28;20471;-67
2021/07/06 11:23:10;;;;;;;0.93;0.80;;;21.20;99.90;;;;;;5016461;28;20480;-67
2021/07/06 11:25:40;;;;;;;1.17;1.00;;;21.20;99.90;;;;;;5015025;28;21048;-67
2021/07/06 11:28:11;;;;;;;2.40;0.90;;;21.20;99.90;;;;;;5015132;28;20488;-66
2021/07/06 11:30:42;;;;;;;3.03;1.10;;;21.30;99.90;;;;;;5014469;28;21115;-66
2021/07/06 11:33:10;;;;;;;1.20;0.90;;;21.30;99.90;;;;;;5014413;28;20477;-67
2021/07/06 11:35:39;;;;;;;2.60;1.73;;;21.30;99.90;;;;;;5016465;28;20468;-67
2021/07/06 11:38:08;;;;;;;1.03;0.93;;;21.30;99.90;;;;;;5020091;28;20457;-67
2021/07/06 11:40:36;;;;;;;0.90;0.80;;;21.20;99.90;;;;;;5040724;28;20459;-67
2021/07/06 11:43:04;;;;;;;1.87;1.03;;;21.20;99.90;;;;;;5048694;28;20506;-67
2021/07/06 11:45:32;;;;;;;1.33;1.03;;;21.20;99.90;;;;;;5049046;28;20460;-67
2021/07/06 11:48:08;;;;;;;1.10;0.90;;;21.20;99.90;;;;;;5049276;28;20609;-67
2021/07/06 11:50:35;;;;;;;1.53;1.00;;;21.10;99.90;;;;;;5048362;28;20455;-67
2021/07/06 11:53:03;;;;;;;1.87;0.97;;;21.10;99.90;;;;;;5048951;28;20455;-67
2021/07/06 11:55:32;;;;;;;1.57;1.10;;;21.00;99.90;;;;;;5048541;28;20459;-67
2021/07/06 11:58:00;;;;;;;1.50;1.20;;;21.00;99.90;;;;;;5049313;28;20483;-67
2021/07/06 12:00:29;;;;;;;2.07;1.80;;;21.00;99.90;;;;;;5048319;28;20931;-67
2021/07/06 12:03:25;;;;;;;1.10;1.00;;;21.00;99.90;;;;;;5035530;28;20456;-67
2021/07/06 12:05:54;;;;;;;4.43;1.67;;;21.00;99.90;;;;;;5039562;28;20459;-66
2021/07/06 12:08:22;;;;;;;2.80;1.00;;;21.00;99.90;;;;;;5037327;28;20484;-67
2021/07/06 12:10:53;;;;;;;1.53;1.17;;;21.10;99.90;;;;;;5028445;28;20452;-67
2021/07/06 12:13:20;;;;;;;1.20;0.97;;;21.10;99.90;;;;;;5028328;28;20472;-67
2021/07/06 12:15:47;;;;;;;1.20;1.10;;;21.20;99.90;;;;;;5028053;28;21164;-67
2021/07/06 12:18:15;;;;;;;1.40;1.10;;;21.20;99.90;;;;;;5029213;28;20475;-67
2021/07/06 12:20:52;;;;;;;2.70;1.10;;;21.30;99.90;;;;;;5028957;28;20781;-67
2021/07/06 12:23:19;;;;;;;1.13;1.00;;;21.30;99.90;;;;;;5029683;28;20800;-67
2021/07/06 12:25:46;;;;;;;3.30;1.10;;;21.40;99.90;;;;;;5042940;28;20985;-67
2021/07/06 12:28:13;;;;;;;1.87;1.07;;;21.40;99.90;;;;;;5026128;28;20492;-67
2021/07/06 12:30:40;;;;;;;1.13;1.03;;;21.40;99.90;;;;;;5027297;28;20465;-66
2021/07/06 12:33:08;;;;;;;2.40;1.20;;;21.40;99.90;;;;;;5038856;28;20475;-67
2021/07/06 12:35:35;;;;;;;1.20;0.90;;;21.50;99.90;;;;;;5026354;28;20456;-67
2021/07/06 12:38:04;;;;;;;1.07;0.97;;;21.40;99.90;;;;;;5028885;28;20456;-67
2021/07/06 12:40:31;;;;;;;1.07;0.97;;;21.40;99.90;;;;;;5028124;28;20836;-67
2021/07/06 12:42:58;;;;;;;1.00;0.83;;;21.50;99.90;;;;;;5028503;28;20471;-67
2021/07/06 12:45:34;;;;;;;1.70;1.07;;;21.50;99.90;;;;;;5039438;28;20461;-67
2021/07/06 12:48:01;;;;;;;2.17;1.30;;;21.50;99.90;;;;;;5047545;28;20879;-67
2021/07/06 12:50:28;;;;;;;3.43;1.00;;;21.50;99.90;;;;;;5048294;28;20459;-67
2021/07/06 12:52:57;;;;;;;1.30;1.20;;;21.50;99.90;;;;;;5047948;28;20463;-67